CheckWX is a tool to help pilots better visualize weather data.  It is not intended as a substitute for an official pre-flight weather briefing.

14:46:03 UTC

KHDN TAF
Yampa Valley Airport
Hayden, Colorado, USA
KHDN 151120Z 1512/1612 11010KT P6SM SCT250 FM152300 27007KT P6SM SCT150 BKN250 FM160300 VRB04KT P6SM BKN250

Sep-15@
12:00 UTC

Sep-15 @ 12:00 UTC

Sep-15@
23:00 UTC

Sep-15 @ 23:00 UTC

KHDN 151120Z 1512/1612 11010KT P6SM SCT250
Wind
  • 110° at 10 KTS
Cloud Levels
  • Scattered at 25,000' AGL

Sep-15@
23:00 UTC

Sep-15 @ 23:00 UTC

Sep-16@
03:00 UTC

Sep-16 @ 03:00 UTC

FM152300 27007KT P6SM SCT150 BKN250

From

From Standard forecast or significant change

Wind
  • 270° at 7 KTS
Cloud Levels
  • Scattered at 15,000' AGL
  • Broken at 25,000' AGL

Sep-16@
03:00 UTC

Sep-16 @ 03:00 UTC

Sep-16@
12:00 UTC

Sep-16 @ 12:00 UTC

FM160300 VRB04KT P6SM BKN250

From

From Standard forecast or significant change

Wind
  • Variable at 4 KTS
Cloud Levels
  • Broken at 25,000' AGL